Wright, Mississippi
Current Conditions -  °F | °C
As of 11:35 AM on Thursday 27 Nov 2014 (Local Time) from KRNV Reporting Station
Overcast Overcast  
Wind Chill: 38°   Ceiling: 3000
Heat Index: 43°   Visibility: 10mi
Dew Point: 32°   Wind: 7mph
Humidity: 65%   Direction: 330°NNW
Pressure: 30.52"   Gusts: NA
Location:  33.8277°N, 90.9559°W
Report Text: KRNV 271735Z AUTO 33006KT 10SM OVC030 06/00 A3052 RMK AO2 T00591002
Loading
Personal Weather Stations






























Interactive Weather Map New forecast layout! Learn more

10-Day Weather Forecast

Advertisements
Track Severe Weather on mobile